Time;durP1;ratioP1;P1;durP2;ratioP2;P2;SDS_P1;SDS_P2;PMS_P1;PMS_P2;Temp;Humidity;BMP_temperature;BMP_pressure;BME280_temperature;BME280_humidity;BME280_pressure;Samples;Min_cycle;Max_cycle;Signal;HPM_P1;HPM_P2
2021/01/22 00:01:11;;;;;;;47.15;26.10;;;;;;;-3.25;83.86;99339.20;1716591;83;21140;-55
2021/01/22 00:03:38;;;;;;;43.80;23.92;;;;;;;-3.28;83.89;99336.09;1692847;83;21164;-54
2021/01/22 00:06:06;;;;;;;43.15;25.05;;;;;;;-3.31;83.83;99334.65;1692494;85;21319;-54
2021/01/22 00:08:33;;;;;;;46.05;26.60;;;;;;;-3.34;84.15;99339.03;1698710;83;21609;-54
2021/01/22 00:11:01;;;;;;;47.10;27.17;;;;;;;-3.34;83.93;99334.21;1718348;83;21561;-54
2021/01/22 00:13:29;;;;;;;46.98;26.35;;;;;;;-3.35;83.81;99335.22;1688761;84;22168;-54
2021/01/22 00:15:56;;;;;;;44.25;25.68;;;;;;;-3.35;83.91;99333.38;1692528;85;21690;-54
2021/01/22 00:18:24;;;;;;;47.62;28.32;;;;;;;-3.37;83.93;99327.45;1694565;83;21197;-54
2021/01/22 00:20:51;;;;;;;51.08;28.15;;;;;;;-3.37;83.77;99326.62;1710128;83;21160;-54
2021/01/22 00:23:19;;;;;;;51.73;30.10;;;;;;;-3.41;83.62;99329.34;1722616;83;21169;-55
2021/01/22 00:25:46;;;;;;;46.60;26.05;;;;;;;-3.43;83.50;99320.70;1720076;83;21153;-54
2021/01/22 00:28:15;;;;;;;47.98;26.70;;;;;;;-3.49;83.75;99320.16;1722807;83;21157;-54
2021/01/22 00:30:42;;;;;;;47.23;27.15;;;;;;;-3.47;83.59;99316.28;1712494;83;21194;-54
2021/01/22 00:33:09;;;;;;;48.10;27.37;;;;;;;-3.52;83.72;99309.39;1694339;83;21683;-55
2021/01/22 00:35:37;;;;;;;44.50;27.75;;;;;;;-3.57;83.81;99317.95;1720475;83;21206;-54
2021/01/22 00:38:04;;;;;;;47.08;27.65;;;;;;;-3.57;83.90;99309.97;1722231;83;21185;-54
2021/01/22 00:40:32;;;;;;;46.55;27.55;;;;;;;-3.58;83.77;99306.19;1721105;83;21184;-55
2021/01/22 00:43:01;;;;;;;45.63;27.10;;;;;;;-3.58;83.80;99301.66;1696841;83;21109;-54
2021/01/22 00:45:29;;;;;;;49.93;28.62;;;;;;;-3.58;84.05;99291.55;1692819;83;21168;-54
2021/01/22 00:47:56;;;;;;;46.35;28.38;;;;;;;-3.58;83.98;99293.67;1713430;83;21198;-55
2021/01/22 00:50:24;;;;;;;46.68;25.65;;;;;;;-3.58;84.33;99298.20;1715697;83;21548;-54
2021/01/22 00:52:52;;;;;;;47.25;27.17;;;;;;;-3.58;84.23;99288.89;1706427;83;21126;-54
2021/01/22 00:55:20;;;;;;;46.70;27.48;;;;;;;-3.58;84.41;99287.02;1687704;84;21165;-55
2021/01/22 00:57:56;;;;;;;47.90;27.67;;;;;;;-3.57;84.55;99283.36;1753295;79;22806;-56
2021/01/22 01:00:26;;;;;;;46.02;27.45;;;;;;;-3.61;84.73;99278.09;1705723;82;21692;-56
2021/01/22 01:02:58;;;;;;;46.35;28.38;;;;;;;-3.61;84.77;99270.63;1721688;83;21711;-56
2021/01/22 01:05:26;;;;;;;51.58;28.83;;;;;;;-3.62;85.08;99273.81;1722312;83;21615;-56
2021/01/22 01:07:54;;;;;;;51.48;29.67;;;;;;;-3.58;85.24;99273.72;1673116;85;21671;-56
2021/01/22 01:10:24;;;;;;;45.28;26.05;;;;;;;-3.53;85.05;99274.48;1696119;83;21194;-56
2021/01/22 01:13:10;;;;;;;47.50;27.25;;;;;;;-3.53;84.97;99273.98;1703366;83;21149;-55
2021/01/22 01:15:41;;;;;;;47.67;26.30;;;;;;;-3.51;85.20;99270.61;1691832;83;21460;-56
2021/01/22 01:18:09;;;;;;;47.85;28.15;;;;;;;-3.50;85.35;99262.12;1697909;83;21160;-56
2021/01/22 01:20:36;;;;;;;45.20;26.85;;;;;;;-3.48;85.36;99260.11;1687526;83;21206;-56
2021/01/22 01:23:04;;;;;;;52.40;30.15;;;;;;;-3.43;85.41;99262.16;1694027;83;21157;-56
2021/01/22 01:25:31;;;;;;;48.33;27.77;;;;;;;-3.38;85.44;99256.59;1701858;83;21161;-55
2021/01/22 01:27:59;;;;;;;47.67;27.07;;;;;;;-3.35;85.59;99254.87;1697634;83;21311;-56
2021/01/22 01:30:27;;;;;;;49.33;28.57;;;;;;;-3.34;85.61;99239.22;1696515;83;21600;-56
2021/01/22 01:32:55;;;;;;;50.90;29.98;;;;;;;-3.28;85.59;99238.94;1674905;84;21290;-56
2021/01/22 01:35:22;;;;;;;48.60;27.80;;;;;;;-3.28;85.70;99237.10;1693788;85;21192;-56
2021/01/22 01:37:50;;;;;;;47.85;28.50;;;;;;;-3.28;85.70;99237.10;1697319;83;21299;-56
2021/01/22 01:40:17;;;;;;;51.15;30.15;;;;;;;-3.27;85.81;99220.62;1693925;83;21176;-56
2021/01/22 01:42:45;;;;;;;44.45;25.32;;;;;;;-3.19;85.92;99232.45;1680344;83;21726;-55
2021/01/22 01:45:13;;;;;;;49.03;28.98;;;;;;;-3.12;85.73;99264.73;1720833;83;21172;-56
2021/01/22 01:47:41;;;;;;;50.43;29.30;;;;;;;-3.11;85.86;99244.26;1706852;83;21631;-55
2021/01/22 01:50:10;;;;;;;50.00;28.62;;;;;;;-3.06;85.94;99245.34;1709222;83;21584;-56
2021/01/22 01:52:39;;;;;;;47.30;26.62;;;;;;;-3.03;85.88;99239.61;1697536;83;21180;-55
2021/01/22 01:55:07;;;;;;;51.85;30.48;;;;;;;-2.99;85.87;99240.04;1703007;83;22674;-55
2021/01/22 01:57:35;;;;;;;51.25;29.35;;;;;;;-3.10;85.87;99206.80;1708259;83;21603;-56
2021/01/22 02:00:05;;;;;;;52.23;29.57;;;;;;;-2.93;85.95;99231.76;1672732;83;21206;-56
2021/01/22 02:02:33;;;;;;;52.93;31.07;;;;;;;-2.91;85.95;99237.22;1670602;84;21184;-54
2021/01/22 02:05:03;;;;;;;48.95;28.77;;;;;;;-2.85;85.86;99229.77;1695237;83;21164;-54
2021/01/22 02:07:30;;;;;;;52.55;29.50;;;;;;;-2.84;86.09;99230.59;1663565;85;21732;-55
2021/01/22 02:09:57;;;;;;;55.67;32.10;;;;;;;-2.81;86.03;99224.36;1701697;83;21708;-54
2021/01/22 02:12:25;;;;;;;54.33;31.75;;;;;;;-2.78;86.07;99225.28;1722682;83;21632;-54
2021/01/22 02:14:53;;;;;;;53.28;31.40;;;;;;;-2.70;85.86;99226.96;1720508;83;21541;-54
2021/01/22 02:17:21;;;;;;;55.35;31.45;;;;;;;-2.70;85.93;99231.78;1715530;83;21128;-54
2021/01/22 02:20:16;;;;;;;54.83;32.15;;;;;;;-2.67;85.93;99225.23;1722867;83;21729;-54
2021/01/22 02:22:43;;;;;;;48.80;28.50;;;;;;;-2.64;85.99;99223.49;1722176;83;21344;-54
2021/01/22 02:25:11;;;;;;;53.98;32.13;;;;;;;-2.67;86.28;99214.06;1722199;83;21933;-54
2021/01/22 02:27:38;;;;;;;52.75;30.45;;;;;;;-2.62;86.21;99208.11;1718599;83;21161;-54
2021/01/22 02:30:07;;;;;;;50.35;28.90;;;;;;;-2.58;86.15;99199.52;1720744;83;21738;-54
2021/01/22 02:32:35;;;;;;;53.55;31.07;;;;;;;-2.58;86.35;99194.20;1694322;83;21173;-54
2021/01/22 02:35:07;;;;;;;51.90;29.80;;;;;;;-2.53;86.37;99195.77;1696077;83;21191;-54
2021/01/22 02:37:37;;;;;;;52.53;31.75;;;;;;;-2.52;86.54;99185.42;1694069;83;21196;-54
2021/01/22 02:40:09;;;;;;;53.35;31.37;;;;;;;-2.47;86.58;99187.97;1697255;83;21286;-54
2021/01/22 02:42:40;;;;;;;52.78;30.37;;;;;;;-2.46;86.58;99194.44;1720686;83;21280;-54
2021/01/22 02:45:11;;;;;;;53.68;31.07;;;;;;;-2.40;86.46;99199.47;1720669;83;21149;-54
2021/01/22 02:47:43;;;;;;;53.00;31.52;;;;;;;-2.37;86.49;99192.42;1705878;83;21149;-54
2021/01/22 02:50:18;;;;;;;53.08;30.55;;;;;;;-2.36;86.52;99186.88;1694056;83;21145;-56
2021/01/22 02:52:46;;;;;;;54.63;30.52;;;;;;;-2.33;86.46;99190.97;1694063;83;21285;-56
2021/01/22 02:55:13;;;;;;;51.02;28.32;;;;;;;-2.31;86.39;99195.61;1661873;85;21175;-56
2021/01/22 02:57:49;;;;;;;49.48;30.12;;;;;;;-2.28;86.33;99177.36;1685925;83;21165;-56
2021/01/22 03:00:25;;;;;;;51.37;28.83;;;;;;;-2.29;86.48;99192.21;1683122;84;21179;-56
2021/01/22 03:03:10;;;;;;;50.98;27.62;;;;;;;-2.25;86.39;99190.79;1680820;85;21678;-56
2021/01/22 03:05:38;;;;;;;48.92;28.62;;;;;;;-2.27;86.53;99186.19;1681484;84;21180;-56
2021/01/22 03:08:18;;;;;;;51.50;30.12;;;;;;;-2.26;86.54;99189.96;1682869;84;21134;-56
2021/01/22 03:10:47;;;;;;;51.02;30.05;;;;;;;-2.23;86.53;99193.55;1705062;84;21165;-56
2021/01/22 03:13:14;;;;;;;49.80;29.65;;;;;;;-2.22;86.59;99193.05;1688892;84;21162;-56
2021/01/22 03:15:42;;;;;;;52.17;28.95;;;;;;;-2.21;86.57;99183.52;1709398;84;21165;-54
2021/01/22 03:18:12;;;;;;;44.77;25.77;;;;;;;-2.17;86.54;99174.61;1705067;84;21157;-54
2021/01/22 03:20:43;;;;;;;51.05;30.23;;;;;;;-2.15;86.49;99180.03;1708624;84;21609;-54
2021/01/22 03:23:10;;;;;;;51.92;30.32;;;;;;;-2.16;86.50;99174.92;1708773;83;21178;-54
2021/01/22 03:25:39;;;;;;;54.35;31.05;;;;;;;-2.12;86.41;99170.80;1698007;84;21165;-54
2021/01/22 03:28:08;;;;;;;49.83;29.30;;;;;;;-2.11;86.47;99179.11;1700405;84;21129;-54
2021/01/22 03:30:35;;;;;;;48.38;28.15;;;;;;;-2.07;86.37;99179.84;1707109;83;21742;-54
2021/01/22 03:33:05;;;;;;;51.37;30.57;;;;;;;-2.02;86.20;99192.03;1689560;84;21581;-54
2021/01/22 03:35:32;;;;;;;54.00;30.65;;;;;;;-1.99;86.21;99192.67;1685178;84;21179;-54
2021/01/22 03:38:00;;;;;;;54.10;30.70;;;;;;;-2.05;86.38;99172.95;1688373;84;21180;-55
2021/01/22 03:40:28;;;;;;;49.42;27.60;;;;;;;-2.00;86.25;99183.84;1681897;84;21793;-54
2021/01/22 03:42:56;;;;;;;52.93;29.60;;;;;;;-1.97;86.14;99178.61;1682521;84;21307;-54
2021/01/22 03:45:23;;;;;;;49.08;29.20;;;;;;;-1.97;86.13;99180.77;1680953;84;21303;-54
2021/01/22 03:47:51;;;;;;;47.85;29.55;;;;;;;-1.97;86.20;99178.61;1688867;84;21181;-54
2021/01/22 03:50:19;;;;;;;50.88;28.85;;;;;;;-1.96;86.18;99185.08;1709145;84;21206;-54
2021/01/22 03:52:46;;;;;;;45.43;26.82;;;;;;;-1.97;86.20;99175.94;1707113;84;21676;-54
2021/01/22 03:55:14;;;;;;;55.03;30.52;;;;;;;-1.95;86.16;99180.06;1707062;84;21184;-54
2021/01/22 03:57:42;;;;;;;52.80;31.65;;;;;;;-1.96;86.26;99171.75;1691355;83;21125;-54
2021/01/22 04:00:11;;;;;;;49.80;28.98;;;;;;;-1.93;86.20;99182.00;1701422;83;21682;-54
2021/01/22 04:02:39;;;;;;;57.53;32.10;;;;;;;-1.89;86.11;99172.56;1703118;83;21754;-54
2021/01/22 04:05:09;;;;;;;50.20;29.07;;;;;;;-1.89;86.14;99174.41;1701318;83;21364;-56
2021/01/22 04:07:36;;;;;;;44.88;25.43;;;;;;;-1.87;86.15;99175.84;1701862;83;21212;-54
2021/01/22 04:10:06;;;;;;;49.03;28.75;;;;;;;-1.87;86.07;99173.17;1722380;83;21623;-54
2021/01/22 04:12:35;;;;;;;49.33;29.67;;;;;;;-1.89;86.18;99160.56;1721531;83;21175;-54
2021/01/22 04:15:05;;;;;;;48.60;28.60;;;;;;;-1.90;86.26;99171.42;1700594;84;21161;-54
2021/01/22 04:17:33;;;;;;;48.87;28.77;;;;;;;-1.87;86.20;99168.34;1679123;83;21148;-54
2021/01/22 04:20:01;;;;;;;48.15;28.45;;;;;;;-1.83;86.11;99169.06;1730111;83;21210;-54
2021/01/22 04:22:29;;;;;;;45.75;26.42;;;;;;;-1.81;86.04;99164.88;1730057;83;21184;-54
2021/01/22 04:24:56;;;;;;;50.73;31.33;;;;;;;-1.82;86.12;99168.05;1678335;83;21180;-54
2021/01/22 04:27:24;;;;;;;50.83;29.52;;;;;;;-1.81;86.09;99163.03;1730324;83;21201;-54
2021/01/22 04:29:51;;;;;;;54.63;30.92;;;;;;;-1.81;86.13;99172.37;1720526;83;21132;-54
2021/01/22 04:32:18;;;;;;;50.43;30.23;;;;;;;-1.79;86.07;99165.47;1701365;83;21334;-55
2021/01/22 04:34:46;;;;;;;51.37;29.70;;;;;;;-1.80;86.10;99164.65;1716678;83;21322;-54
2021/01/22 04:37:13;;;;;;;51.60;30.20;;;;;;;-1.81;86.09;99164.36;1716690;83;21188;-54
2021/01/22 04:39:41;;;;;;;49.38;28.75;;;;;;;-1.78;86.05;99174.62;1698326;83;21329;-54
2021/01/22 04:42:09;;;;;;;51.77;31.27;;;;;;;-1.77;86.02;99167.44;1701256;83;21192;-54
2021/01/22 04:44:37;;;;;;;51.13;30.95;;;;;;;-1.73;85.92;99165.97;1703198;83;21187;-54
2021/01/22 04:47:07;;;;;;;52.40;31.05;;;;;;;-1.73;85.88;99157.97;1727077;83;21184;-54
2021/01/22 04:49:36;;;;;;;51.90;30.35;;;;;;;-1.68;85.79;99164.34;1727948;83;21185;-54
2021/01/22 04:52:04;;;;;;;52.38;31.20;;;;;;;-1.62;85.58;99166.17;1703521;83;21236;-54
2021/01/22 04:57:09;;;;;;;50.70;31.40;;;;;;;-1.63;85.75;99157.85;1814479;79;23231;-54
2021/01/22 04:59:49;;;;;;;54.55;32.45;;;;;;;-1.68;85.79;99167.52;1774091;80;21571;-54
2021/01/22 05:02:21;;;;;;;42.90;25.50;;;;;;;-1.67;85.67;99157.98;1754759;82;21295;-54
2021/01/22 05:04:50;;;;;;;54.67;32.33;;;;;;;-1.66;85.71;99165.45;1754440;80;21582;-53
2021/01/22 05:07:22;;;;;;;52.33;30.37;;;;;;;-1.66;85.69;99165.45;1760102;81;21129;-54
2021/01/22 05:09:49;;;;;;;53.83;32.53;;;;;;;-1.65;85.69;99155.09;1744945;80;21444;-55
2021/01/22 05:12:18;;;;;;;53.08;31.17;;;;;;;-1.67;85.70;99155.83;1750761;82;21140;-56
2021/01/22 05:14:46;;;;;;;48.85;30.80;;;;;;;-1.67;85.75;99149.98;1749713;81;21301;-55
2021/01/22 05:17:13;;;;;;;47.33;29.30;;;;;;;-1.66;85.77;99156.94;1743952;81;21161;-54
2021/01/22 05:19:43;;;;;;;45.52;28.27;;;;;;;-1.66;85.77;99156.94;1760573;81;21584;-54
2021/01/22 05:22:14;;;;;;;49.35;30.75;;;;;;;-1.64;85.74;99158.91;1749565;81;21291;-55
2021/01/22 05:24:42;;;;;;;47.95;28.45;;;;;;;-1.60;85.68;99164.64;1754234;80;21173;-54
2021/01/22 05:27:11;;;;;;;50.30;30.02;;;;;;;-1.60;85.62;99164.64;1730848;81;21172;-54
2021/01/22 05:29:42;;;;;;;48.02;28.62;;;;;;;-1.61;85.58;99163.82;1735939;81;21149;-54
2021/01/22 05:32:29;;;;;;;49.83;30.70;;;;;;;-1.60;85.63;99170.81;1730678;83;21176;-54
2021/01/22 05:34:57;;;;;;;49.58;30.77;;;;;;;-1.61;85.61;99166.48;1743565;81;21226;-55
2021/01/22 05:37:25;;;;;;;48.38;29.27;;;;;;;-1.59;85.60;99173.77;1752203;81;21270;-54
2021/01/22 05:40:13;;;;;;;49.58;30.60;;;;;;;-1.55;85.51;99196.34;1754099;80;21145;-53
2021/01/22 05:42:48;;;;;;;45.10;27.73;;;;;;;-1.54;85.45;99183.83;1731701;81;21326;-55
2021/01/22 05:45:17;;;;;;;51.23;31.02;;;;;;;-1.49;85.35;99188.55;1739030;81;21248;-55
2021/01/22 05:47:44;;;;;;;48.45;30.72;;;;;;;-1.55;85.36;99185.67;1751979;81;21342;-54
2021/01/22 05:50:12;;;;;;;50.25;29.42;;;;;;;-1.48;85.09;99180.83;1747401;80;21160;-54
2021/01/22 05:52:40;;;;;;;46.60;28.75;;;;;;;-1.45;85.02;99181.77;1748955;81;21287;-54
2021/01/22 05:55:22;;;;;;;47.60;28.62;;;;;;;-1.42;84.83;99184.02;1755825;81;21159;-55
2021/01/22 05:57:50;;;;;;;47.88;29.72;;;;;;;-1.52;85.03;99180.42;1738755;82;21290;-54
2021/01/22 06:00:19;;;;;;;48.60;29.30;;;;;;;-1.52;85.10;99174.58;1710677;83;21283;-54
2021/01/22 06:02:46;;;;;;;45.20;27.85;;;;;;;-1.51;84.94;99178.89;1712211;83;21577;-54
2021/01/22 06:05:15;;;;;;;46.08;28.25;;;;;;;-1.63;85.31;99172.53;1741584;81;21211;-54
2021/01/22 06:07:45;;;;;;;48.58;29.35;;;;;;;-1.62;85.35;99176.85;1682970;85;22052;-54
2021/01/22 06:10:20;;;;;;;50.67;31.45;;;;;;;-1.64;85.46;99170.91;1730348;82;21169;-54
2021/01/22 06:12:53;;;;;;;50.88;32.08;;;;;;;-1.63;85.42;99174.41;1700124;83;21181;-54
2021/01/22 06:15:23;;;;;;;50.65;30.17;;;;;;;-1.58;85.37;99179.42;1729068;82;21641;-54
2021/01/22 06:17:52;;;;;;;52.20;30.40;;;;;;;-1.55;85.26;99180.33;1739955;82;21192;-54
2021/01/22 06:20:23;;;;;;;51.65;30.65;;;;;;;-1.61;85.52;99169.67;1747004;82;21150;-54
2021/01/22 06:23:06;;;;;;;50.75;30.02;;;;;;;-1.62;85.58;99167.51;1746828;82;21186;-55
2021/01/22 06:25:34;;;;;;;48.13;28.38;;;;;;;-1.64;85.69;99171.42;1746211;82;21165;-54
2021/01/22 06:28:03;;;;;;;46.55;28.70;;;;;;;-1.64;85.73;99162.91;1728486;82;21158;-55
2021/01/22 06:30:38;;;;;;;47.73;30.75;;;;;;;-1.59;85.75;99166.27;1720363;82;21154;-54
2021/01/22 06:35:46;;;;;;;47.85;29.10;;;;;;;-1.51;85.87;99165.55;1754221;79;23753;-56
2021/01/22 06:38:13;;;;;;;54.10;31.57;;;;;;;-1.55;85.88;99168.32;1703523;83;21712;-56
2021/01/22 06:40:41;;;;;;;49.03;28.17;;;;;;;-1.57;86.03;99157.05;1692519;83;21565;-56
2021/01/22 06:43:09;;;;;;;50.65;31.87;;;;;;;-1.43;85.66;99159.68;1713312;83;21166;-56
2021/01/22 06:45:38;;;;;;;48.17;29.37;;;;;;;-1.45;85.79;99155.87;1722650;83;21138;-56
2021/01/22 06:48:06;;;;;;;44.93;27.67;;;;;;;-1.42;85.86;99155.48;1707241;83;21684;-57
2021/01/22 06:50:36;;;;;;;52.95;31.65;;;;;;;-1.29;85.50;99162.63;1722614;83;21571;-56
2021/01/22 06:53:10;;;;;;;49.58;31.65;;;;;;;-1.35;85.69;99154.95;1714477;83;21616;-56
2021/01/22 06:56:04;;;;;;;41.37;23.62;;;;;;;-1.29;85.64;99159.95;1700525;83;21182;-56
2021/01/22 06:58:31;;;;;;;49.23;29.37;;;;;;;-1.23;85.36;99161.78;1700917;83;21573;-56
2021/01/22 07:01:01;;;;;;;49.42;29.95;;;;;;;-1.32;85.65;99161.20;1695549;82;21723;-56
2021/01/22 07:03:47;;;;;;;44.18;27.02;;;;;;;-1.19;85.49;99164.34;1691895;83;21295;-56
2021/01/22 07:06:37;;;;;;;54.33;31.93;;;;;;;-1.15;85.32;99167.72;1691740;85;21193;-56
2021/01/22 07:09:05;;;;;;;56.10;32.55;;;;;;;-1.20;85.57;99157.34;1637717;85;21218;-57
2021/01/22 07:11:52;;;;;;;54.08;32.42;;;;;;;-1.15;85.48;99160.22;1664887;85;21133;-56
2021/01/22 07:14:34;;;;;;;47.90;29.77;;;;;;;-1.05;85.38;99161.93;1673432;85;21315;-56
2021/01/22 07:17:04;;;;;;;50.05;28.27;;;;;;;-0.98;85.15;99156.05;1649332;87;21205;-56
2021/01/22 07:19:31;;;;;;;44.93;27.05;;;;;;;-1.00;85.36;99160.80;1651487;85;21234;-57
2021/01/22 07:21:59;;;;;;;48.95;29.72;;;;;;;-0.89;85.29;99157.47;1649345;86;21209;-57
2021/01/22 07:24:29;;;;;;;48.65;31.12;;;;;;;-0.81;84.85;99159.88;1666306;85;21230;-57
2021/01/22 07:26:56;;;;;;;54.93;32.17;;;;;;;-0.88;84.86;99160.42;1662862;85;21302;-57
2021/01/22 07:29:27;;;;;;;50.28;30.37;;;;;;;-0.80;84.71;99164.20;1668108;85;21238;-57
2021/01/22 07:32:04;;;;;;;50.60;31.37;;;;;;;-0.70;84.57;99159.20;1672765;85;21722;-58
2021/01/22 07:34:48;;;;;;;46.95;28.17;;;;;;;-0.73;84.58;99171.66;1668759;85;21203;-57
2021/01/22 07:37:23;;;;;;;43.68;26.68;;;;;;;-0.67;84.51;99156.11;1661696;85;21281;-57
2021/01/22 07:39:55;;;;;;;49.70;31.35;;;;;;;-0.55;84.19;99162.42;1696277;84;21641;-57
2021/01/22 07:42:24;;;;;;;49.90;31.35;;;;;;;-0.58;84.22;99157.52;1707316;84;21122;-56
2021/01/22 07:44:52;;;;;;;51.77;31.15;;;;;;;-0.54;84.44;99156.05;1712898;82;21182;-57
2021/01/22 07:47:26;;;;;;;51.63;31.55;;;;;;;-0.42;83.87;99152.16;1712636;84;21169;-56
2021/01/22 07:50:02;;;;;;;50.88;32.30;;;;;;;-0.47;83.87;99151.17;1712476;82;21154;-57
2021/01/22 07:52:30;;;;;;;46.98;28.52;;;;;;;-0.52;84.05;99153.97;1684518;84;21158;-57
2021/01/22 07:54:57;;;;;;;49.08;30.92;;;;;;;-0.40;83.85;99155.97;1682593;85;21296;-56
2021/01/22 07:57:26;;;;;;;50.58;30.97;;;;;;;-0.33;83.69;99166.11;1682711;85;21182;-56
2021/01/22 07:59:53;;;;;;;52.83;33.18;;;;;;;-0.39;83.88;99161.63;1682431;85;21192;-56
2021/01/22 08:02:22;;;;;;;47.60;32.17;;;;;;;-0.33;83.74;99169.61;1684530;84;21153;-56
2021/01/22 08:04:59;;;;;;;52.60;31.95;;;;;;;-0.24;83.38;99162.95;1698924;84;21138;-56
2021/01/22 08:07:39;;;;;;;50.23;30.90;;;;;;;-0.28;83.50;99160.91;1687966;84;21729;-55
2021/01/22 08:10:10;;;;;;;50.33;32.60;;;;;;;-0.30;83.37;99145.61;1665946;86;21196;-56
2021/01/22 08:12:41;;;;;;;50.00;31.95;;;;;;;-0.19;83.09;99154.28;1652527;85;21103;-56
2021/01/22 08:15:19;;;;;;;50.80;31.80;;;;;;;-0.21;83.25;99155.83;1659751;84;21166;-58
2021/01/22 08:17:50;;;;;;;52.23;32.83;;;;;;;-0.26;83.40;99151.66;1710478;84;21299;-57
2021/01/22 08:20:19;;;;;;;51.63;32.25;;;;;;;-0.09;83.05;99150.61;1714558;83;21146;-56
2021/01/22 08:22:54;;;;;;;50.03;32.33;;;;;;;-0.09;82.89;99163.47;1693583;83;21311;-57
2021/01/22 08:25:32;;;;;;;53.83;33.25;;;;;;;-0.08;82.87;99157.09;1656301;86;21205;-57
2021/01/22 08:28:01;;;;;;;52.33;34.03;;;;;;;0.03;82.88;99152.89;1676113;85;21783;-57
2021/01/22 08:30:29;;;;;;;53.02;33.92;;;;;;;0.10;82.51;99149.64;1713861;83;21334;-56
2021/01/22 08:32:56;;;;;;;57.60;36.60;;;;;;;0.05;82.62;99149.98;1666066;86;21714;-57
2021/01/22 08:35:46;;;;;;;50.85;33.75;;;;;;;0.01;82.63;99156.28;1663551;86;21200;-57
2021/01/22 08:38:13;;;;;;;55.92;35.50;;;;;;;0.13;82.19;99147.86;1681357;84;21180;-56
2021/01/22 08:43:19;;;;;;;53.85;34.48;;;;;;;0.15;82.29;99140.94;1779062;79;22942;-54
2021/01/22 08:46:10;;;;;;;49.85;32.60;;;;;;;0.22;82.12;99147.87;1726849;81;21185;-57
2021/01/22 08:48:37;;;;;;;49.30;32.80;;;;;;;0.33;81.60;99145.82;1722204;83;21597;-57
2021/01/22 08:51:06;;;;;;;56.55;34.60;;;;;;;0.32;81.53;99144.17;1702297;82;21291;-54
2021/01/22 08:53:34;;;;;;;55.60;33.02;;;;;;;0.27;81.53;99138.68;1691925;83;21172;-54
2021/01/22 08:56:16;;;;;;;52.98;33.95;;;;;;;;;;1691712;85;21183;-54
2021/01/22 08:59:02;;;;;;;50.33;32.33;;;;;;;0.46;81.16;99135.52;1699445;83;21177;-57
2021/01/22 09:01:51;;;;;;;58.73;36.40;;;;;;;0.41;81.20;99128.14;1723084;83;21726;-57
2021/01/22 09:04:24;;;;;;;50.33;32.88;;;;;;;0.42;81.27;99134.32;1722550;83;21329;-57
2021/01/22 09:06:56;;;;;;;46.30;30.60;;;;;;;0.60;80.60;99133.01;1722522;83;21201;-57
2021/01/22 09:09:43;;;;;;;50.17;32.10;;;;;;;0.62;80.59;99134.11;1720603;83;21620;-57
2021/01/22 09:12:19;;;;;;;48.60;30.70;;;;;;;0.60;80.57;99124.97;1693656;83;21110;-57
2021/01/22 09:14:56;;;;;;;47.90;31.00;;;;;;;0.64;79.92;99121.33;1692284;85;21197;-57
2021/01/22 09:17:36;;;;;;;42.33;28.67;;;;;;;0.79;79.57;99123.92;1694194;83;21213;-56
2021/01/22 09:20:14;;;;;;;49.67;31.87;;;;;;;0.83;79.49;99126.97;1710162;83;21181;-57
2021/01/22 09:22:43;;;;;;;49.73;32.67;;;;;;;0.78;79.48;99123.61;1722587;83;21225;-57
2021/01/22 09:25:14;;;;;;;48.63;32.60;;;;;;;0.92;79.19;99122.41;1722844;83;21695;-57
2021/01/22 09:27:42;;;;;;;47.67;31.50;;;;;;;1.00;78.66;99116.76;1722262;83;21240;-57
2021/01/22 09:38:39;;;;;;;45.25;30.43;;;;;;;1.38;77.75;99115.67;1693185;83;21134;-57
2021/01/22 09:41:07;;;;;;;46.58;31.52;;;;;;;1.35;77.33;99108.87;1692281;85;21224;-57
2021/01/22 09:43:34;;;;;;;50.58;33.18;;;;;;;1.36;77.35;99102.98;1680206;84;21201;-57
2021/01/22 09:46:03;;;;;;;44.80;30.68;;;;;;;1.46;77.30;99096.03;1680038;85;21211;-57
2021/01/22 09:48:30;;;;;;;48.13;31.15;;;;;;;1.62;76.48;99094.58;1681955;84;21966;-57
2021/01/22 09:50:58;;;;;;;46.90;31.95;;;;;;;1.65;76.28;99093.29;1695391;84;21164;-57
2021/01/22 09:53:25;;;;;;;45.15;29.87;;;;;;;1.70;76.29;99088.06;1709564;84;21304;-57
2021/01/22 09:55:52;;;;;;;45.00;31.10;;;;;;;1.82;75.75;99083.52;1709499;84;21604;-57
2021/01/22 09:58:19;;;;;;;45.23;31.57;;;;;;;2.09;75.03;99091.97;1707287;83;21126;-57
2021/01/22 10:00:47;;;;;;;46.20;30.25;;;;;;;2.29;74.02;99078.48;1709260;84;21193;-58
2021/01/22 10:03:15;;;;;;;43.15;29.65;;;;;;;2.41;73.71;99073.91;1709418;84;21313;-56
2021/01/22 10:05:45;;;;;;;44.63;30.12;;;;;;;2.50;73.09;99076.54;1709399;83;21532;-57
2021/01/22 10:08:12;;;;;;;43.80;29.18;;;;;;;2.61;72.87;99076.23;1683380;84;21158;-57
2021/01/22 10:10:39;;;;;;;41.58;28.87;;;;;;;2.80;72.01;99074.22;1679444;85;21198;-56
2021/01/22 10:13:08;;;;;;;43.35;29.92;;;;;;;2.92;71.20;99066.92;1678857;85;21189;-57
2021/01/22 10:15:36;;;;;;;44.63;30.85;;;;;;;2.90;71.70;99075.77;1679424;85;21198;-57
2021/01/22 10:18:03;;;;;;;42.43;30.12;;;;;;;2.86;71.19;99066.02;1681395;84;21169;-57
2021/01/22 10:20:31;;;;;;;42.70;30.00;;;;;;;2.81;71.24;99072.62;1679848;84;21197;-57
2021/01/22 10:22:59;;;;;;;40.75;28.00;;;;;;;2.71;71.44;99063.53;1679696;84;21134;-56
2021/01/22 10:25:26;;;;;;;40.78;29.72;;;;;;;2.81;71.28;99061.87;1679650;85;21198;-56
2021/01/22 10:27:53;;;;;;;39.20;28.32;;;;;;;2.66;71.48;99055.37;1681564;84;22049;-57
2021/01/22 10:30:21;;;;;;;43.80;31.12;;;;;;;2.59;71.87;99052.00;1681826;84;21211;-56
2021/01/22 10:32:49;;;;;;;41.05;28.62;;;;;;;2.45;72.41;99052.23;1709557;84;21672;-56
2021/01/22 10:35:17;;;;;;;39.95;28.67;;;;;;;2.39;72.76;99040.28;1709344;84;21585;-57
2021/01/22 10:37:44;;;;;;;41.83;28.57;;;;;;;2.45;72.37;99037.98;1686514;84;21545;-57
2021/01/22 10:40:13;;;;;;;38.53;28.23;;;;;;;2.51;72.05;99037.84;1679424;85;21347;-57
2021/01/22 10:42:41;;;;;;;40.35;28.67;;;;;;;2.46;72.47;99038.28;1660250;85;21194;-57
2021/01/22 10:45:10;;;;;;;39.98;28.73;;;;;;;2.47;72.49;99031.34;1679570;85;21320;-56
2021/01/22 10:47:37;;;;;;;39.98;28.27;;;;;;;2.55;72.37;99030.69;1662137;85;21593;-57
2021/01/22 10:50:07;;;;;;;39.50;27.40;;;;;;;2.82;71.73;99030.43;1688959;84;21601;-56
2021/01/22 10:52:34;;;;;;;38.28;26.85;;;;;;;3.06;70.37;99015.84;1709473;83;21743;-56
2021/01/22 10:55:03;;;;;;;39.35;28.12;;;;;;;3.13;70.38;99017.03;1709316;84;21718;-56
2021/01/22 10:57:33;;;;;;;38.92;27.62;;;;;;;3.18;70.02;99019.83;1681007;85;21279;-56
2021/01/22 11:00:00;;;;;;;38.40;28.32;;;;;;;3.22;70.01;99007.02;1681072;84;21211;-56
2021/01/22 11:02:28;;;;;;;37.30;27.27;;;;;;;3.31;69.91;99006.89;1681014;85;21193;-56
2021/01/22 11:04:56;;;;;;;45.03;31.37;;;;;;;3.49;69.37;99013.40;1681064;84;21621;-56
2021/01/22 11:07:23;;;;;;;53.63;36.58;;;;;;;3.59;68.84;99004.67;1681663;84;21201;-56
2021/01/22 11:09:51;;;;;;;58.58;42.48;;;;;;;3.52;68.75;98998.62;1696347;84;21153;-56
2021/01/22 11:12:18;;;;;;;67.70;46.53;;;;;;;3.43;68.91;98990.16;1709378;84;21182;-57
2021/01/22 11:14:47;;;;;;;47.85;33.15;;;;;;;3.39;69.20;98990.36;1702268;84;21329;-56
2021/01/22 11:17:14;;;;;;;43.05;30.70;;;;;;;3.41;69.21;98997.64;1679476;85;21166;-56
2021/01/22 11:19:42;;;;;;;51.85;33.35;;;;;;;3.59;68.79;98988.52;1679589;85;21217;-56
2021/01/22 11:22:10;;;;;;;62.55;35.80;;;;;;;3.75;68.08;98990.94;1660267;85;21577;-56
2021/01/22 11:24:37;;;;;;;47.73;30.48;;;;;;;3.66;68.35;98985.14;1660683;84;21744;-56
2021/01/22 11:27:05;;;;;;;93.05;43.73;;;;;;;3.61;68.51;98986.42;1708242;84;21174;-57
2021/01/22 11:29:32;;;;;;;76.53;39.80;;;;;;;3.58;68.83;98980.16;1689219;84;21324;-56
2021/01/22 11:32:00;;;;;;;65.95;35.85;;;;;;;3.53;68.81;98977.39;1709239;83;21292;-57
2021/01/22 11:34:28;;;;;;;51.45;34.88;;;;;;;3.58;68.78;98977.46;1709250;84;21342;-57
2021/01/22 11:36:57;;;;;;;45.50;32.28;;;;;;;3.63;68.53;98975.39;1707353;84;21165;-57
2021/01/22 11:39:24;;;;;;;48.20;34.13;;;;;;;3.54;68.92;98970.97;1709347;83;21172;-57
2021/01/22 11:41:53;;;;;;;44.00;31.27;;;;;;;3.48;69.18;98974.61;1709287;83;21645;-57
2021/01/22 11:44:20;;;;;;;43.98;30.37;;;;;;;3.37;69.40;98971.46;1705454;84;21688;-57
2021/01/22 11:46:48;;;;;;;43.65;30.85;;;;;;;3.29;69.73;98976.73;1679486;85;21182;-57
2021/01/22 11:49:15;;;;;;;41.05;28.40;;;;;;;3.32;69.70;98976.77;1679596;85;21673;-57